sensor_id;sensor_type;location;lat;lon;timestamp;P1;durP1;ratioP1;P2;durP2;ratioP2
60478;SDS011;46321;48.398;11.754;2023-02-26T00:01:16;3.15;;;1.48;;
60478;SDS011;46321;48.398;11.754;2023-02-26T00:03:43;2.10;;;1.25;;
60478;SDS011;46321;48.398;11.754;2023-02-26T00:06:12;2.92;;;1.65;;
60478;SDS011;46321;48.398;11.754;2023-02-26T00:08:37;2.13;;;1.40;;
60478;SDS011;46321;48.398;11.754;2023-02-26T00:11:05;3.33;;;1.65;;
60478;SDS011;46321;48.398;11.754;2023-02-26T00:13:31;2.22;;;1.50;;
60478;SDS011;46321;48.398;11.754;2023-02-26T00:15:58;2.65;;;1.63;;
60478;SDS011;46321;48.398;11.754;2023-02-26T00:18:25;1.95;;;1.30;;
60478;SDS011;46321;48.398;11.754;2023-02-26T00:20:50;3.08;;;1.52;;
60478;SDS011;46321;48.398;11.754;2023-02-26T00:23:16;2.97;;;1.50;;
60478;SDS011;46321;48.398;11.754;2023-02-26T00:25:42;2.42;;;1.55;;
60478;SDS011;46321;48.398;11.754;2023-02-26T00:28:08;3.47;;;1.40;;
60478;SDS011;46321;48.398;11.754;2023-02-26T00:30:34;3.15;;;1.58;;
60478;SDS011;46321;48.398;11.754;2023-02-26T00:33:00;1.25;;;1.02;;
60478;SDS011;46321;48.398;11.754;2023-02-26T00:35:26;2.08;;;1.35;;
60478;SDS011;46321;48.398;11.754;2023-02-26T00:38:02;1.90;;;1.20;;
60478;SDS011;46321;48.398;11.754;2023-02-26T00:40:47;1.92;;;1.25;;
60478;SDS011;46321;48.398;11.754;2023-02-26T00:43:15;1.73;;;1.33;;
60478;SDS011;46321;48.398;11.754;2023-02-26T00:45:44;1.90;;;1.13;;
60478;SDS011;46321;48.398;11.754;2023-02-26T00:51:01;1.92;;;1.27;;
60478;SDS011;46321;48.398;11.754;2023-02-26T00:53:35;2.88;;;1.30;;
60478;SDS011;46321;48.398;11.754;2023-02-26T00:56:10;1.98;;;1.30;;
60478;SDS011;46321;48.398;11.754;2023-02-26T00:58:35;2.92;;;1.30;;
60478;SDS011;46321;48.398;11.754;2023-02-26T01:01:01;2.70;;;1.48;;
60478;SDS011;46321;48.398;11.754;2023-02-26T01:03:26;2.30;;;1.45;;
60478;SDS011;46321;48.398;11.754;2023-02-26T01:05:52;2.88;;;1.50;;
60478;SDS011;46321;48.398;11.754;2023-02-26T01:08:18;2.40;;;1.42;;
60478;SDS011;46321;48.398;11.754;2023-02-26T01:10:47;2.20;;;1.48;;
60478;SDS011;46321;48.398;11.754;2023-02-26T01:13:13;2.67;;;1.33;;
60478;SDS011;46321;48.398;11.754;2023-02-26T01:15:39;2.80;;;1.40;;
60478;SDS011;46321;48.398;11.754;2023-02-26T01:18:15;3.72;;;1.60;;
60478;SDS011;46321;48.398;11.754;2023-02-26T01:20:59;2.25;;;1.42;;
60478;SDS011;46321;48.398;11.754;2023-02-26T01:23:30;1.65;;;1.40;;
60478;SDS011;46321;48.398;11.754;2023-02-26T01:26:03;1.58;;;1.20;;
60478;SDS011;46321;48.398;11.754;2023-02-26T01:28:35;2.45;;;1.45;;
60478;SDS011;46321;48.398;11.754;2023-02-26T01:31:01;1.73;;;1.30;;
60478;SDS011;46321;48.398;11.754;2023-02-26T01:33:49;3.25;;;1.30;;
60478;SDS011;46321;48.398;11.754;2023-02-26T01:36:20;2.60;;;1.30;;
60478;SDS011;46321;48.398;11.754;2023-02-26T01:38:51;1.65;;;1.20;;
60478;SDS011;46321;48.398;11.754;2023-02-26T01:41:50;1.13;;;1.00;;
60478;SDS011;46321;48.398;11.754;2023-02-26T01:47:22;1.95;;;1.20;;
60478;SDS011;46321;48.398;11.754;2023-02-26T01:49:54;2.08;;;1.25;;
60478;SDS011;46321;48.398;11.754;2023-02-26T01:53:06;3.90;;;1.33;;
60478;SDS011;46321;48.398;11.754;2023-02-26T01:55:14;2.47;;;1.30;;
60478;SDS011;46321;48.398;11.754;2023-02-26T01:57:42;1.70;;;1.13;;
60478;SDS011;46321;48.398;11.754;2023-02-26T02:00:08;1.15;;;0.88;;
60478;SDS011;46321;48.398;11.754;2023-02-26T02:02:34;2.03;;;1.30;;
60478;SDS011;46321;48.398;11.754;2023-02-26T02:05:02;3.55;;;1.10;;
60478;SDS011;46321;48.398;11.754;2023-02-26T02:07:31;1.83;;;1.08;;
60478;SDS011;46321;48.398;11.754;2023-02-26T02:09:56;1.20;;;1.00;;
60478;SDS011;46321;48.398;11.754;2023-02-26T02:18:30;2.63;;;1.10;;
60478;SDS011;46321;48.398;11.754;2023-02-26T02:23:55;1.23;;;1.13;;
60478;SDS011;46321;48.398;11.754;2023-02-26T02:34:13;2.67;;;1.30;;
60478;SDS011;46321;48.398;11.754;2023-02-26T02:39:09;2.60;;;1.00;;
60478;SDS011;46321;48.398;11.754;2023-02-26T02:41:45;1.45;;;0.90;;
60478;SDS011;46321;48.398;11.754;2023-02-26T02:44:15;2.08;;;1.08;;
60478;SDS011;46321;48.398;11.754;2023-02-26T02:46:45;1.73;;;1.13;;
60478;SDS011;46321;48.398;11.754;2023-02-26T02:49:19;2.20;;;1.20;;
60478;SDS011;46321;48.398;11.754;2023-02-26T02:54:54;2.42;;;1.50;;
60478;SDS011;46321;48.398;11.754;2023-02-26T02:57:29;1.60;;;0.90;;
60478;SDS011;46321;48.398;11.754;2023-02-26T03:00:00;2.35;;;1.40;;
60478;SDS011;46321;48.398;11.754;2023-02-26T03:05:07;3.35;;;1.30;;
60478;SDS011;46321;48.398;11.754;2023-02-26T03:07:37;2.55;;;1.20;;
60478;SDS011;46321;48.398;11.754;2023-02-26T03:10:08;3.22;;;1.00;;
60478;SDS011;46321;48.398;11.754;2023-02-26T03:12:34;3.47;;;1.10;;
60478;SDS011;46321;48.398;11.754;2023-02-26T03:15:00;2.15;;;1.17;;
60478;SDS011;46321;48.398;11.754;2023-02-26T03:17:28;2.75;;;1.20;;
60478;SDS011;46321;48.398;11.754;2023-02-26T03:20:18;1.75;;;1.20;;
60478;SDS011;46321;48.398;11.754;2023-02-26T03:22:56;4.72;;;1.20;;
60478;SDS011;46321;48.398;11.754;2023-02-26T03:28:12;2.47;;;1.20;;
60478;SDS011;46321;48.398;11.754;2023-02-26T03:31:01;2.70;;;1.20;;
60478;SDS011;46321;48.398;11.754;2023-02-26T03:33:43;3.35;;;1.05;;
60478;SDS011;46321;48.398;11.754;2023-02-26T03:36:18;2.58;;;1.40;;
60478;SDS011;46321;48.398;11.754;2023-02-26T03:39:06;2.08;;;1.33;;
60478;SDS011;46321;48.398;11.754;2023-02-26T03:41:43;4.03;;;1.70;;
60478;SDS011;46321;48.398;11.754;2023-02-26T03:44:15;1.77;;;1.20;;
60478;SDS011;46321;48.398;11.754;2023-02-26T03:46:50;2.17;;;1.27;;
60478;SDS011;46321;48.398;11.754;2023-02-26T03:49:20;3.08;;;1.30;;
60478;SDS011;46321;48.398;11.754;2023-02-26T03:51:54;2.22;;;1.40;;
60478;SDS011;46321;48.398;11.754;2023-02-26T03:54:27;3.42;;;1.50;;
60478;SDS011;46321;48.398;11.754;2023-02-26T03:59:22;3.42;;;1.23;;
60478;SDS011;46321;48.398;11.754;2023-02-26T04:02:32;1.83;;;1.10;;
60478;SDS011;46321;48.398;11.754;2023-02-26T04:04:47;1.58;;;1.20;;
60478;SDS011;46321;48.398;11.754;2023-02-26T04:07:16;3.05;;;1.20;;
60478;SDS011;46321;48.398;11.754;2023-02-26T04:09:44;2.58;;;1.40;;
60478;SDS011;46321;48.398;11.754;2023-02-26T04:12:12;2.53;;;1.38;;
60478;SDS011;46321;48.398;11.754;2023-02-26T04:14:37;1.58;;;1.20;;
60478;SDS011;46321;48.398;11.754;2023-02-26T04:17:03;3.20;;;1.30;;
60478;SDS011;46321;48.398;11.754;2023-02-26T04:19:28;6.28;;;1.30;;
60478;SDS011;46321;48.398;11.754;2023-02-26T04:21:54;4.43;;;1.55;;
60478;SDS011;46321;48.398;11.754;2023-02-26T04:24:19;3.28;;;1.55;;
60478;SDS011;46321;48.398;11.754;2023-02-26T04:26:44;3.30;;;1.65;;
60478;SDS011;46321;48.398;11.754;2023-02-26T04:29:10;3.40;;;1.60;;
60478;SDS011;46321;48.398;11.754;2023-02-26T04:31:35;2.42;;;1.33;;
60478;SDS011;46321;48.398;11.754;2023-02-26T04:34:00;2.15;;;1.23;;
60478;SDS011;46321;48.398;11.754;2023-02-26T04:36:26;1.92;;;1.25;;
60478;SDS011;46321;48.398;11.754;2023-02-26T04:38:52;2.63;;;1.30;;
60478;SDS011;46321;48.398;11.754;2023-02-26T04:41:17;5.05;;;1.60;;
60478;SDS011;46321;48.398;11.754;2023-02-26T04:43:42;2.15;;;1.40;;
60478;SDS011;46321;48.398;11.754;2023-02-26T04:46:08;5.28;;;1.50;;
60478;SDS011;46321;48.398;11.754;2023-02-26T04:48:33;4.78;;;1.52;;
60478;SDS011;46321;48.398;11.754;2023-02-26T04:50:58;5.78;;;2.08;;
60478;SDS011;46321;48.398;11.754;2023-02-26T04:53:23;3.15;;;1.70;;
60478;SDS011;46321;48.398;11.754;2023-02-26T04:55:49;3.10;;;1.40;;
60478;SDS011;46321;48.398;11.754;2023-02-26T04:58:14;2.60;;;1.65;;
60478;SDS011;46321;48.398;11.754;2023-02-26T05:00:39;3.15;;;1.15;;
60478;SDS011;46321;48.398;11.754;2023-02-26T05:03:05;3.13;;;1.52;;
60478;SDS011;46321;48.398;11.754;2023-02-26T05:05:30;2.78;;;1.30;;
60478;SDS011;46321;48.398;11.754;2023-02-26T05:07:56;4.70;;;1.50;;
60478;SDS011;46321;48.398;11.754;2023-02-26T05:10:22;2.47;;;1.50;;
60478;SDS011;46321;48.398;11.754;2023-02-26T05:12:47;2.28;;;1.40;;
60478;SDS011;46321;48.398;11.754;2023-02-26T05:15:13;2.40;;;1.52;;
60478;SDS011;46321;48.398;11.754;2023-02-26T05:17:38;2.65;;;1.90;;
60478;SDS011;46321;48.398;11.754;2023-02-26T05:20:04;4.35;;;1.40;;
60478;SDS011;46321;48.398;11.754;2023-02-26T05:22:34;3.45;;;1.60;;
60478;SDS011;46321;48.398;11.754;2023-02-26T05:25:00;3.28;;;1.60;;
60478;SDS011;46321;48.398;11.754;2023-02-26T05:27:25;2.80;;;1.55;;
60478;SDS011;46321;48.398;11.754;2023-02-26T05:29:50;2.15;;;1.30;;
60478;SDS011;46321;48.398;11.754;2023-02-26T05:32:15;1.75;;;1.15;;
60478;SDS011;46321;48.398;11.754;2023-02-26T05:34:41;2.05;;;1.38;;
60478;SDS011;46321;48.398;11.754;2023-02-26T05:37:06;2.25;;;1.55;;
60478;SDS011;46321;48.398;11.754;2023-02-26T05:39:31;3.22;;;1.67;;
60478;SDS011;46321;48.398;11.754;2023-02-26T05:41:56;3.30;;;1.58;;
60478;SDS011;46321;48.398;11.754;2023-02-26T05:44:22;5.28;;;1.48;;
60478;SDS011;46321;48.398;11.754;2023-02-26T05:46:47;2.38;;;1.50;;
60478;SDS011;46321;48.398;11.754;2023-02-26T05:49:12;2.35;;;1.73;;
60478;SDS011;46321;48.398;11.754;2023-02-26T05:51:38;3.95;;;1.40;;
60478;SDS011;46321;48.398;11.754;2023-02-26T05:54:03;1.88;;;1.52;;
60478;SDS011;46321;48.398;11.754;2023-02-26T05:56:29;2.00;;;1.45;;
60478;SDS011;46321;48.398;11.754;2023-02-26T05:58:54;2.38;;;1.52;;
60478;SDS011;46321;48.398;11.754;2023-02-26T06:01:20;2.97;;;1.65;;
60478;SDS011;46321;48.398;11.754;2023-02-26T06:03:45;3.40;;;1.65;;
60478;SDS011;46321;48.398;11.754;2023-02-26T06:06:11;2.65;;;1.55;;
60478;SDS011;46321;48.398;11.754;2023-02-26T06:08:38;4.10;;;1.65;;
60478;SDS011;46321;48.398;11.754;2023-02-26T06:11:03;4.55;;;2.03;;
60478;SDS011;46321;48.398;11.754;2023-02-26T06:13:29;4.18;;;1.92;;
60478;SDS011;46321;48.398;11.754;2023-02-26T06:15:54;2.13;;;1.50;;
60478;SDS011;46321;48.398;11.754;2023-02-26T06:18:19;2.25;;;1.35;;
60478;SDS011;46321;48.398;11.754;2023-02-26T06:20:45;2.42;;;1.55;;
60478;SDS011;46321;48.398;11.754;2023-02-26T06:23:10;2.13;;;1.45;;
60478;SDS011;46321;48.398;11.754;2023-02-26T06:25:35;3.40;;;1.50;;
60478;SDS011;46321;48.398;11.754;2023-02-26T06:28:01;6.57;;;1.63;;
60478;SDS011;46321;48.398;11.754;2023-02-26T06:30:26;3.63;;;1.50;;
60478;SDS011;46321;48.398;11.754;2023-02-26T06:32:51;4.88;;;1.70;;
60478;SDS011;46321;48.398;11.754;2023-02-26T06:35:17;7.82;;;1.63;;
60478;SDS011;46321;48.398;11.754;2023-02-26T06:37:42;3.03;;;1.50;;
60478;SDS011;46321;48.398;11.754;2023-02-26T06:40:07;2.88;;;1.63;;
60478;SDS011;46321;48.398;11.754;2023-02-26T06:42:34;3.72;;;1.73;;
60478;SDS011;46321;48.398;11.754;2023-02-26T06:45:00;3.22;;;1.90;;
60478;SDS011;46321;48.398;11.754;2023-02-26T06:47:25;2.63;;;1.73;;
60478;SDS011;46321;48.398;11.754;2023-02-26T06:49:51;2.15;;;1.58;;
60478;SDS011;46321;48.398;11.754;2023-02-26T06:52:16;2.55;;;1.85;;
60478;SDS011;46321;48.398;11.754;2023-02-26T06:54:41;2.63;;;1.40;;
60478;SDS011;46321;48.398;11.754;2023-02-26T06:57:07;3.35;;;1.70;;
60478;SDS011;46321;48.398;11.754;2023-02-26T06:59:32;5.55;;;2.03;;
60478;SDS011;46321;48.398;11.754;2023-02-26T07:01:57;4.55;;;1.45;;
60478;SDS011;46321;48.398;11.754;2023-02-26T07:04:22;2.17;;;1.50;;
60478;SDS011;46321;48.398;11.754;2023-02-26T07:06:48;2.25;;;1.58;;
60478;SDS011;46321;48.398;11.754;2023-02-26T07:09:13;4.55;;;1.75;;
60478;SDS011;46321;48.398;11.754;2023-02-26T07:11:38;2.25;;;1.40;;
60478;SDS011;46321;48.398;11.754;2023-02-26T07:14:04;2.85;;;1.95;;
60478;SDS011;46321;48.398;11.754;2023-02-26T07:16:29;6.10;;;2.20;;
60478;SDS011;46321;48.398;11.754;2023-02-26T07:18:54;2.58;;;1.30;;
60478;SDS011;46321;48.398;11.754;2023-02-26T07:21:19;2.85;;;1.60;;
60478;SDS011;46321;48.398;11.754;2023-02-26T07:23:45;3.17;;;1.40;;
60478;SDS011;46321;48.398;11.754;2023-02-26T07:26:10;2.78;;;1.40;;
60478;SDS011;46321;48.398;11.754;2023-02-26T07:28:35;3.70;;;1.65;;
60478;SDS011;46321;48.398;11.754;2023-02-26T07:31:01;4.00;;;1.50;;
60478;SDS011;46321;48.398;11.754;2023-02-26T07:33:26;3.97;;;1.95;;
60478;SDS011;46321;48.398;11.754;2023-02-26T07:35:52;3.25;;;1.42;;
60478;SDS011;46321;48.398;11.754;2023-02-26T07:38:18;3.47;;;1.80;;
60478;SDS011;46321;48.398;11.754;2023-02-26T07:40:43;2.47;;;1.60;;
60478;SDS011;46321;48.398;11.754;2023-02-26T07:43:08;3.83;;;1.50;;
60478;SDS011;46321;48.398;11.754;2023-02-26T07:45:33;2.55;;;1.83;;
60478;SDS011;46321;48.398;11.754;2023-02-26T07:47:59;2.10;;;1.50;;
60478;SDS011;46321;48.398;11.754;2023-02-26T07:50:24;2.25;;;1.52;;
60478;SDS011;46321;48.398;11.754;2023-02-26T07:52:50;3.03;;;1.90;;
60478;SDS011;46321;48.398;11.754;2023-02-26T07:55:17;4.93;;;1.83;;
60478;SDS011;46321;48.398;11.754;2023-02-26T07:57:42;3.03;;;1.67;;
60478;SDS011;46321;48.398;11.754;2023-02-26T08:00:08;3.60;;;2.25;;
60478;SDS011;46321;48.398;11.754;2023-02-26T08:02:34;2.47;;;1.65;;
60478;SDS011;46321;48.398;11.754;2023-02-26T08:04:59;5.55;;;2.30;;
60478;SDS011;46321;48.398;11.754;2023-02-26T08:07:24;2.90;;;2.15;;
60478;SDS011;46321;48.398;11.754;2023-02-26T08:09:50;7.40;;;5.22;;
60478;SDS011;46321;48.398;11.754;2023-02-26T08:12:15;5.88;;;3.72;;
60478;SDS011;46321;48.398;11.754;2023-02-26T08:14:40;5.80;;;2.60;;
60478;SDS011;46321;48.398;11.754;2023-02-26T08:17:06;2.85;;;1.95;;
60478;SDS011;46321;48.398;11.754;2023-02-26T08:19:32;4.95;;;2.25;;
60478;SDS011;46321;48.398;11.754;2023-02-26T08:21:58;2.85;;;1.88;;
60478;SDS011;46321;48.398;11.754;2023-02-26T08:24:23;2.90;;;1.80;;
60478;SDS011;46321;48.398;11.754;2023-02-26T08:26:48;2.95;;;1.70;;
60478;SDS011;46321;48.398;11.754;2023-02-26T08:29:14;6.40;;;3.22;;
60478;SDS011;46321;48.398;11.754;2023-02-26T08:31:39;3.13;;;2.33;;
60478;SDS011;46321;48.398;11.754;2023-02-26T08:34:04;3.33;;;2.60;;
60478;SDS011;46321;48.398;11.754;2023-02-26T08:36:30;4.53;;;1.98;;
60478;SDS011;46321;48.398;11.754;2023-02-26T08:38:56;3.38;;;2.03;;
60478;SDS011;46321;48.398;11.754;2023-02-26T08:41:22;4.25;;;2.53;;
60478;SDS011;46321;48.398;11.754;2023-02-26T08:43:47;2.58;;;1.92;;
60478;SDS011;46321;48.398;11.754;2023-02-26T08:46:13;3.40;;;2.70;;
60478;SDS011;46321;48.398;11.754;2023-02-26T08:48:38;4.43;;;2.78;;
60478;SDS011;46321;48.398;11.754;2023-02-26T08:51:03;2.30;;;1.90;;
60478;SDS011;46321;48.398;11.754;2023-02-26T08:53:29;3.55;;;2.17;;
60478;SDS011;46321;48.398;11.754;2023-02-26T08:55:54;3.55;;;1.67;;
60478;SDS011;46321;48.398;11.754;2023-02-26T08:58:19;4.25;;;2.55;;
60478;SDS011;46321;48.398;11.754;2023-02-26T09:00:45;3.90;;;2.05;;
60478;SDS011;46321;48.398;11.754;2023-02-26T09:03:11;3.67;;;1.88;;
60478;SDS011;46321;48.398;11.754;2023-02-26T09:05:36;3.55;;;2.00;;
60478;SDS011;46321;48.398;11.754;2023-02-26T09:08:02;3.08;;;1.88;;
60478;SDS011;46321;48.398;11.754;2023-02-26T09:10:28;3.58;;;2.20;;
60478;SDS011;46321;48.398;11.754;2023-02-26T09:12:53;3.10;;;2.15;;
60478;SDS011;46321;48.398;11.754;2023-02-26T09:15:19;2.85;;;2.15;;
60478;SDS011;46321;48.398;11.754;2023-02-26T09:17:45;4.03;;;2.25;;
60478;SDS011;46321;48.398;11.754;2023-02-26T09:20:11;3.25;;;1.98;;
60478;SDS011;46321;48.398;11.754;2023-02-26T09:22:38;7.43;;;4.90;;
60478;SDS011;46321;48.398;11.754;2023-02-26T09:25:03;6.05;;;2.92;;
60478;SDS011;46321;48.398;11.754;2023-02-26T09:27:31;2.97;;;2.00;;
60478;SDS011;46321;48.398;11.754;2023-02-26T09:29:58;3.25;;;1.98;;
60478;SDS011;46321;48.398;11.754;2023-02-26T09:32:23;1.98;;;1.58;;
60478;SDS011;46321;48.398;11.754;2023-02-26T09:34:50;2.90;;;1.80;;
60478;SDS011;46321;48.398;11.754;2023-02-26T09:37:16;2.58;;;1.98;;
60478;SDS011;46321;48.398;11.754;2023-02-26T09:39:41;3.63;;;1.73;;
60478;SDS011;46321;48.398;11.754;2023-02-26T09:42:28;2.58;;;1.88;;
60478;SDS011;46321;48.398;11.754;2023-02-26T09:45:02;2.92;;;1.70;;
60478;SDS011;46321;48.398;11.754;2023-02-26T09:50:25;4.18;;;2.30;;
60478;SDS011;46321;48.398;11.754;2023-02-26T09:55:30;5.90;;;2.93;;
60478;SDS011;46321;48.398;11.754;2023-02-26T09:58:03;2.88;;;1.88;;
60478;SDS011;46321;48.398;11.754;2023-02-26T10:00:43;4.70;;;2.53;;
60478;SDS011;46321;48.398;11.754;2023-02-26T10:03:29;3.05;;;2.30;;
60478;SDS011;46321;48.398;11.754;2023-02-26T10:08:57;2.88;;;1.73;;
60478;SDS011;46321;48.398;11.754;2023-02-26T10:14:29;2.45;;;1.80;;
60478;SDS011;46321;48.398;11.754;2023-02-26T10:16:57;2.60;;;1.60;;
60478;SDS011;46321;48.398;11.754;2023-02-26T10:19:28;2.28;;;1.58;;
60478;SDS011;46321;48.398;11.754;2023-02-26T10:24:42;2.30;;;1.65;;
60478;SDS011;46321;48.398;11.754;2023-02-26T10:27:13;3.70;;;1.67;;
60478;SDS011;46321;48.398;11.754;2023-02-26T10:32:32;1.90;;;1.50;;
60478;SDS011;46321;48.398;11.754;2023-02-26T10:35:05;1.60;;;1.42;;
60478;SDS011;46321;48.398;11.754;2023-02-26T10:40:12;1.95;;;1.50;;
60478;SDS011;46321;48.398;11.754;2023-02-26T10:42:49;2.80;;;1.83;;
60478;SDS011;46321;48.398;11.754;2023-02-26T10:51:13;1.90;;;1.40;;
60478;SDS011;46321;48.398;11.754;2023-02-26T10:53:44;1.67;;;1.30;;
60478;SDS011;46321;48.398;11.754;2023-02-26T10:56:19;1.73;;;1.30;;
60478;SDS011;46321;48.398;11.754;2023-02-26T10:58:49;2.28;;;1.77;;
60478;SDS011;46321;48.398;11.754;2023-02-26T11:01:16;2.08;;;1.42;;
60478;SDS011;46321;48.398;11.754;2023-02-26T11:04:40;2.35;;;1.70;;
60478;SDS011;46321;48.398;11.754;2023-02-26T11:07:18;3.25;;;1.25;;
60478;SDS011;46321;48.398;11.754;2023-02-26T11:09:52;1.67;;;1.35;;
60478;SDS011;46321;48.398;11.754;2023-02-26T11:12:18;1.77;;;1.27;;
60478;SDS011;46321;48.398;11.754;2023-02-26T11:14:47;2.70;;;1.50;;
60478;SDS011;46321;48.398;11.754;2023-02-26T11:17:18;1.45;;;1.25;;
60478;SDS011;46321;48.398;11.754;2023-02-26T11:19:55;2.28;;;1.50;;
60478;SDS011;46321;48.398;11.754;2023-02-26T11:22:31;1.73;;;1.40;;
60478;SDS011;46321;48.398;11.754;2023-02-26T11:24:59;1.55;;;1.20;;
60478;SDS011;46321;48.398;11.754;2023-02-26T11:27:31;3.50;;;1.50;;
60478;SDS011;46321;48.398;11.754;2023-02-26T11:30:03;2.13;;;1.60;;
60478;SDS011;46321;48.398;11.754;2023-02-26T11:32:38;1.80;;;1.38;;
60478;SDS011;46321;48.398;11.754;2023-02-26T11:35:06;1.67;;;1.23;;
60478;SDS011;46321;48.398;11.754;2023-02-26T11:37:37;2.30;;;1.30;;
60478;SDS011;46321;48.398;11.754;2023-02-26T11:40:14;1.55;;;1.40;;
60478;SDS011;46321;48.398;11.754;2023-02-26T11:42:44;1.67;;;1.40;;
60478;SDS011;46321;48.398;11.754;2023-02-26T11:45:15;2.80;;;1.58;;
60478;SDS011;46321;48.398;11.754;2023-02-26T11:47:44;1.73;;;1.38;;
60478;SDS011;46321;48.398;11.754;2023-02-26T11:50:13;1.52;;;1.20;;
60478;SDS011;46321;48.398;11.754;2023-02-26T11:52:44;1.70;;;1.00;;
60478;SDS011;46321;48.398;11.754;2023-02-26T11:58:19;1.83;;;1.20;;
60478;SDS011;46321;48.398;11.754;2023-02-26T12:00:46;1.30;;;1.10;;
60478;SDS011;46321;48.398;11.754;2023-02-26T12:03:15;2.10;;;1.30;;
60478;SDS011;46321;48.398;11.754;2023-02-26T12:05:42;1.95;;;1.10;;
60478;SDS011;46321;48.398;11.754;2023-02-26T12:08:19;1.70;;;1.20;;
60478;SDS011;46321;48.398;11.754;2023-02-26T12:16:41;1.77;;;1.17;;
60478;SDS011;46321;48.398;11.754;2023-02-26T12:27:41;2.25;;;1.48;;
60478;SDS011;46321;48.398;11.754;2023-02-26T12:35:30;2.40;;;1.60;;
60478;SDS011;46321;48.398;11.754;2023-02-26T12:38:08;2.67;;;1.50;;
60478;SDS011;46321;48.398;11.754;2023-02-26T12:40:56;4.40;;;1.90;;
60478;SDS011;46321;48.398;11.754;2023-02-26T12:43:40;2.33;;;1.60;;
60478;SDS011;46321;48.398;11.754;2023-02-26T13:05:49;2.40;;;1.27;;
60478;SDS011;46321;48.398;11.754;2023-02-26T13:11:39;2.70;;;1.65;;
60478;SDS011;46321;48.398;11.754;2023-02-26T13:16:50;3.17;;;1.73;;
60478;SDS011;46321;48.398;11.754;2023-02-26T13:19:28;3.28;;;1.73;;
60478;SDS011;46321;48.398;11.754;2023-02-26T13:22:02;3.45;;;2.00;;
60478;SDS011;46321;48.398;11.754;2023-02-26T13:24:37;2.65;;;1.70;;
60478;SDS011;46321;48.398;11.754;2023-02-26T13:27:05;3.47;;;1.80;;
60478;SDS011;46321;48.398;11.754;2023-02-26T13:29:35;3.67;;;1.90;;
60478;SDS011;46321;48.398;11.754;2023-02-26T13:32:09;2.45;;;1.50;;
60478;SDS011;46321;48.398;11.754;2023-02-26T13:37:20;2.45;;;1.48;;
60478;SDS011;46321;48.398;11.754;2023-02-26T13:42:49;4.32;;;1.50;;
60478;SDS011;46321;48.398;11.754;2023-02-26T13:48:37;2.33;;;1.40;;
60478;SDS011;46321;48.398;11.754;2023-02-26T13:51:24;2.08;;;1.27;;
60478;SDS011;46321;48.398;11.754;2023-02-26T13:54:08;1.80;;;1.10;;
60478;SDS011;46321;48.398;11.754;2023-02-26T14:01:54;2.78;;;1.38;;
60478;SDS011;46321;48.398;11.754;2023-02-26T14:05:06;1.90;;;1.40;;
60478;SDS011;46321;48.398;11.754;2023-02-26T14:07:43;2.53;;;1.15;;
60478;SDS011;46321;48.398;11.754;2023-02-26T14:10:16;2.60;;;1.40;;
60478;SDS011;46321;48.398;11.754;2023-02-26T14:15:58;1.42;;;1.10;;
60478;SDS011;46321;48.398;11.754;2023-02-26T14:18:39;2.05;;;1.38;;
60478;SDS011;46321;48.398;11.754;2023-02-26T14:24:16;2.58;;;1.55;;
60478;SDS011;46321;48.398;11.754;2023-02-26T14:26:50;2.35;;;1.40;;
60478;SDS011;46321;48.398;11.754;2023-02-26T14:29:37;2.50;;;1.48;;
60478;SDS011;46321;48.398;11.754;2023-02-26T14:34:49;2.80;;;1.48;;
60478;SDS011;46321;48.398;11.754;2023-02-26T14:37:19;2.20;;;1.60;;
60478;SDS011;46321;48.398;11.754;2023-02-26T14:39:58;8.20;;;1.75;;
60478;SDS011;46321;48.398;11.754;2023-02-26T14:42:37;2.45;;;1.23;;
60478;SDS011;46321;48.398;11.754;2023-02-26T14:47:46;1.95;;;1.25;;
60478;SDS011;46321;48.398;11.754;2023-02-26T14:50:19;1.63;;;1.10;;
60478;SDS011;46321;48.398;11.754;2023-02-26T15:01:07;3.45;;;1.73;;
60478;SDS011;46321;48.398;11.754;2023-02-26T15:17:48;3.10;;;1.42;;
60478;SDS011;46321;48.398;11.754;2023-02-26T15:26:06;2.97;;;1.33;;
60478;SDS011;46321;48.398;11.754;2023-02-26T15:28:38;2.58;;;1.23;;
60478;SDS011;46321;48.398;11.754;2023-02-26T15:31:05;2.03;;;1.02;;
60478;SDS011;46321;48.398;11.754;2023-02-26T15:33:34;2.42;;;1.40;;
60478;SDS011;46321;48.398;11.754;2023-02-26T15:36:00;2.80;;;1.30;;
60478;SDS011;46321;48.398;11.754;2023-02-26T15:38:38;2.40;;;1.30;;
60478;SDS011;46321;48.398;11.754;2023-02-26T15:41:05;2.42;;;1.23;;
60478;SDS011;46321;48.398;11.754;2023-02-26T15:43:30;1.95;;;1.45;;
60478;SDS011;46321;48.398;11.754;2023-02-26T15:45:56;1.73;;;1.20;;
60478;SDS011;46321;48.398;11.754;2023-02-26T15:50:58;2.97;;;1.42;;
60478;SDS011;46321;48.398;11.754;2023-02-26T15:53:37;1.98;;;1.00;;
60478;SDS011;46321;48.398;11.754;2023-02-26T15:56:07;2.10;;;1.30;;
60478;SDS011;46321;48.398;11.754;2023-02-26T15:58:41;2.08;;;1.40;;
60478;SDS011;46321;48.398;11.754;2023-02-26T16:01:16;1.95;;;1.45;;
60478;SDS011;46321;48.398;11.754;2023-02-26T16:03:43;2.58;;;1.50;;
60478;SDS011;46321;48.398;11.754;2023-02-26T16:06:14;2.10;;;1.17;;
60478;SDS011;46321;48.398;11.754;2023-02-26T16:08:41;3.53;;;1.27;;
60478;SDS011;46321;48.398;11.754;2023-02-26T16:11:07;1.98;;;1.20;;
60478;SDS011;46321;48.398;11.754;2023-02-26T16:13:34;2.55;;;1.25;;
60478;SDS011;46321;48.398;11.754;2023-02-26T16:16:04;1.95;;;1.38;;
60478;SDS011;46321;48.398;11.754;2023-02-26T16:18:33;1.77;;;1.27;;
60478;SDS011;46321;48.398;11.754;2023-02-26T16:21:01;2.80;;;1.50;;
60478;SDS011;46321;48.398;11.754;2023-02-26T16:23:52;2.38;;;1.60;;
60478;SDS011;46321;48.398;11.754;2023-02-26T16:26:21;2.58;;;1.50;;
60478;SDS011;46321;48.398;11.754;2023-02-26T16:28:54;2.50;;;1.50;;
60478;SDS011;46321;48.398;11.754;2023-02-26T16:31:24;1.98;;;1.55;;
60478;SDS011;46321;48.398;11.754;2023-02-26T16:36:31;2.85;;;1.50;;
60478;SDS011;46321;48.398;11.754;2023-02-26T16:39:23;2.13;;;1.50;;
60478;SDS011;46321;48.398;11.754;2023-02-26T16:41:59;4.55;;;1.58;;
60478;SDS011;46321;48.398;11.754;2023-02-26T16:44:46;2.90;;;1.73;;
60478;SDS011;46321;48.398;11.754;2023-02-26T16:47:14;2.08;;;1.40;;
60478;SDS011;46321;48.398;11.754;2023-02-26T16:49:40;2.42;;;1.60;;
60478;SDS011;46321;48.398;11.754;2023-02-26T16:52:09;5.47;;;1.80;;
60478;SDS011;46321;48.398;11.754;2023-02-26T16:54:41;4.50;;;1.80;;
60478;SDS011;46321;48.398;11.754;2023-02-26T16:57:16;2.47;;;1.60;;
60478;SDS011;46321;48.398;11.754;2023-02-26T16:59:46;2.85;;;1.75;;
60478;SDS011;46321;48.398;11.754;2023-02-26T17:02:20;2.78;;;1.67;;
60478;SDS011;46321;48.398;11.754;2023-02-26T17:04:57;3.22;;;2.03;;
60478;SDS011;46321;48.398;11.754;2023-02-26T17:07:32;2.75;;;1.73;;
60478;SDS011;46321;48.398;11.754;2023-02-26T17:10:04;3.10;;;1.88;;
60478;SDS011;46321;48.398;11.754;2023-02-26T17:12:42;3.97;;;1.75;;
60478;SDS011;46321;48.398;11.754;2023-02-26T17:15:17;3.85;;;1.90;;
60478;SDS011;46321;48.398;11.754;2023-02-26T17:17:53;2.83;;;1.80;;
60478;SDS011;46321;48.398;11.754;2023-02-26T17:20:23;5.22;;;1.92;;
60478;SDS011;46321;48.398;11.754;2023-02-26T17:22:49;4.45;;;2.15;;
60478;SDS011;46321;48.398;11.754;2023-02-26T17:25:16;3.13;;;2.00;;
60478;SDS011;46321;48.398;11.754;2023-02-26T17:27:43;5.10;;;2.67;;
60478;SDS011;46321;48.398;11.754;2023-02-26T17:30:11;3.53;;;2.00;;
60478;SDS011;46321;48.398;11.754;2023-02-26T17:32:40;4.40;;;1.98;;
60478;SDS011;46321;48.398;11.754;2023-02-26T17:35:06;4.05;;;2.28;;
60478;SDS011;46321;48.398;11.754;2023-02-26T17:37:33;2.90;;;1.90;;